sensor_id;sensor_type;location;lat;lon;timestamp;pressure;altitude;pressure_sealevel;temperature;humidity
40372;BME280;28564;53.346;-6.554;2022-11-18T00:02:01;98872.75;;;9.51;58.61
40372;BME280;28564;53.346;-6.554;2022-11-18T00:04:29;98880.81;;;9.67;58.63
40372;BME280;28564;53.346;-6.554;2022-11-18T00:06:56;98881.43;;;9.83;58.74
40372;BME280;28564;53.346;-6.554;2022-11-18T00:09:23;98887.43;;;9.65;58.71
40372;BME280;28564;53.346;-6.554;2022-11-18T00:11:51;98893.13;;;9.56;58.89
40372;BME280;28564;53.346;-6.554;2022-11-18T00:14:19;98896.69;;;9.79;58.93
40372;BME280;28564;53.346;-6.554;2022-11-18T00:16:50;98901.10;;;9.51;59.09
40372;BME280;28564;53.346;-6.554;2022-11-18T00:19:18;98902.55;;;9.78;59.05
40372;BME280;28564;53.346;-6.554;2022-11-18T00:21:45;98912.39;;;9.35;59.01
40372;BME280;28564;53.346;-6.554;2022-11-18T00:24:12;98910.10;;;9.82;59.00
40372;BME280;28564;53.346;-6.554;2022-11-18T00:26:40;98913.87;;;9.84;58.92
40372;BME280;28564;53.346;-6.554;2022-11-18T00:29:08;98915.08;;;9.67;58.83
40372;BME280;28564;53.346;-6.554;2022-11-18T00:31:36;98917.50;;;9.63;58.77
40372;BME280;28564;53.346;-6.554;2022-11-18T00:34:04;98917.57;;;9.45;59.09
40372;BME280;28564;53.346;-6.554;2022-11-18T00:36:32;98920.07;;;9.66;59.22
40372;BME280;28564;53.346;-6.554;2022-11-18T00:38:59;98923.09;;;9.52;59.49
40372;BME280;28564;53.346;-6.554;2022-11-18T00:41:27;98926.30;;;9.58;59.52
40372;BME280;28564;53.346;-6.554;2022-11-18T00:43:54;98933.62;;;9.63;59.46
40372;BME280;28564;53.346;-6.554;2022-11-18T00:46:21;98932.86;;;9.32;59.54
40372;BME280;28564;53.346;-6.554;2022-11-18T00:48:48;98933.02;;;9.20;59.44
40372;BME280;28564;53.346;-6.554;2022-11-18T00:51:17;98932.56;;;9.61;59.59
40372;BME280;28564;53.346;-6.554;2022-11-18T00:53:45;98942.66;;;9.52;59.91
40372;BME280;28564;53.346;-6.554;2022-11-18T00:56:12;98945.55;;;9.58;59.97
40372;BME280;28564;53.346;-6.554;2022-11-18T00:58:39;98949.23;;;9.57;60.09
40372;BME280;28564;53.346;-6.554;2022-11-18T01:01:06;98951.61;;;9.28;59.97
40372;BME280;28564;53.346;-6.554;2022-11-18T01:03:34;98950.67;;;9.72;59.96
40372;BME280;28564;53.346;-6.554;2022-11-18T01:06:01;98953.43;;;9.61;59.81
40372;BME280;28564;53.346;-6.554;2022-11-18T01:08:28;98957.60;;;9.75;59.53
40372;BME280;28564;53.346;-6.554;2022-11-18T01:10:55;98953.48;;;9.73;59.56
40372;BME280;28564;53.346;-6.554;2022-11-18T01:13:22;98963.56;;;9.65;59.87
40372;BME280;28564;53.346;-6.554;2022-11-18T01:15:51;98960.21;;;9.69;59.87
40372;BME280;28564;53.346;-6.554;2022-11-18T01:18:21;98957.61;;;9.87;59.62
40372;BME280;28564;53.346;-6.554;2022-11-18T01:20:50;98960.64;;;10.10;59.64
40372;BME280;28564;53.346;-6.554;2022-11-18T01:23:18;98959.76;;;9.78;59.48
40372;BME280;28564;53.346;-6.554;2022-11-18T01:25:48;98961.35;;;9.90;59.23
40372;BME280;28564;53.346;-6.554;2022-11-18T01:28:16;98956.57;;;10.22;59.04
40372;BME280;28564;53.346;-6.554;2022-11-18T01:30:44;98964.76;;;10.11;58.82
40372;BME280;28564;53.346;-6.554;2022-11-18T01:33:12;98969.78;;;10.12;58.75
40372;BME280;28564;53.346;-6.554;2022-11-18T01:35:41;98964.78;;;10.10;58.69
40372;BME280;28564;53.346;-6.554;2022-11-18T01:38:10;98965.11;;;10.10;58.77
40372;BME280;28564;53.346;-6.554;2022-11-18T01:40:37;98967.19;;;10.34;58.68
40372;BME280;28564;53.346;-6.554;2022-11-18T01:43:09;98960.49;;;10.20;58.54
40372;BME280;28564;53.346;-6.554;2022-11-18T01:45:39;98962.60;;;10.13;58.62
40372;BME280;28564;53.346;-6.554;2022-11-18T01:48:10;98968.87;;;10.35;58.77
40372;BME280;28564;53.346;-6.554;2022-11-18T01:50:43;98971.28;;;10.21;58.63
40372;BME280;28564;53.346;-6.554;2022-11-18T01:53:16;98970.79;;;10.46;58.59
40372;BME280;28564;53.346;-6.554;2022-11-18T01:55:47;98970.90;;;10.51;58.57
40372;BME280;28564;53.346;-6.554;2022-11-18T01:58:21;98966.17;;;10.38;58.51
40372;BME280;28564;53.346;-6.554;2022-11-18T02:00:50;98974.65;;;10.38;58.49
40372;BME280;28564;53.346;-6.554;2022-11-18T02:03:18;98966.26;;;10.39;58.48
40372;BME280;28564;53.346;-6.554;2022-11-18T02:05:48;98970.20;;;10.38;58.52
40372;BME280;28564;53.346;-6.554;2022-11-18T02:08:17;98970.45;;;10.51;58.30
40372;BME280;28564;53.346;-6.554;2022-11-18T02:10:45;98971.85;;;10.63;58.06
40372;BME280;28564;53.346;-6.554;2022-11-18T02:13:12;98968.77;;;10.79;57.97
40372;BME280;28564;53.346;-6.554;2022-11-18T02:15:56;98969.68;;;10.72;57.95
40372;BME280;28564;53.346;-6.554;2022-11-18T02:18:33;98978.91;;;10.76;57.92
40372;BME280;28564;53.346;-6.554;2022-11-18T02:21:14;98975.57;;;10.78;57.88
40372;BME280;28564;53.346;-6.554;2022-11-18T02:24:30;98974.62;;;10.51;57.89
40372;BME280;28564;53.346;-6.554;2022-11-18T02:27:25;98976.49;;;10.50;57.89
40372;BME280;28564;53.346;-6.554;2022-11-18T02:30:02;98981.16;;;10.47;57.83
40372;BME280;28564;53.346;-6.554;2022-11-18T02:32:32;98982.00;;;10.71;57.81
40372;BME280;28564;53.346;-6.554;2022-11-18T02:35:06;98986.13;;;10.75;57.81
40372;BME280;28564;53.346;-6.554;2022-11-18T02:37:40;98985.97;;;10.77;57.69
40372;BME280;28564;53.346;-6.554;2022-11-18T02:40:14;98983.44;;;10.84;57.50
40372;BME280;28564;53.346;-6.554;2022-11-18T02:42:44;98987.13;;;10.81;57.50
40372;BME280;28564;53.346;-6.554;2022-11-18T02:45:18;98989.78;;;10.81;57.39
40372;BME280;28564;53.346;-6.554;2022-11-18T02:47:48;98987.89;;;10.67;57.51
40372;BME280;28564;53.346;-6.554;2022-11-18T02:50:18;98994.36;;;10.49;57.43
40372;BME280;28564;53.346;-6.554;2022-11-18T02:52:52;98999.77;;;10.76;57.46
40372;BME280;28564;53.346;-6.554;2022-11-18T02:55:21;99006.48;;;10.77;57.50
40372;BME280;28564;53.346;-6.554;2022-11-18T02:57:51;99007.35;;;10.84;57.36
40372;BME280;28564;53.346;-6.554;2022-11-18T03:00:19;98998.47;;;10.90;57.12
40372;BME280;28564;53.346;-6.554;2022-11-18T03:02:48;99008.79;;;10.65;56.89
40372;BME280;28564;53.346;-6.554;2022-11-18T03:05:20;99007.93;;;11.00;56.72
40372;BME280;28564;53.346;-6.554;2022-11-18T03:07:54;99009.08;;;10.54;56.52
40372;BME280;28564;53.346;-6.554;2022-11-18T03:10:34;99014.96;;;11.07;56.46
40372;BME280;28564;53.346;-6.554;2022-11-18T03:13:07;99019.00;;;10.60;56.36
40372;BME280;28564;53.346;-6.554;2022-11-18T03:15:45;99025.90;;;10.66;56.14
40372;BME280;28564;53.346;-6.554;2022-11-18T03:18:19;99035.57;;;11.01;56.06
40372;BME280;28564;53.346;-6.554;2022-11-18T03:20:49;99032.43;;;11.05;56.04
40372;BME280;28564;53.346;-6.554;2022-11-18T03:23:23;99036.02;;;11.02;56.14
40372;BME280;28564;53.346;-6.554;2022-11-18T03:25:54;99025.23;;;11.01;56.12
40372;BME280;28564;53.346;-6.554;2022-11-18T03:28:26;99040.45;;;10.93;56.41
40372;BME280;28564;53.346;-6.554;2022-11-18T03:31:00;99040.65;;;10.84;56.54
40372;BME280;28564;53.346;-6.554;2022-11-18T03:33:34;99048.29;;;10.78;56.66
40372;BME280;28564;53.346;-6.554;2022-11-18T03:36:05;99055.17;;;10.65;56.86
40372;BME280;28564;53.346;-6.554;2022-11-18T03:38:37;99057.34;;;10.82;56.56
40372;BME280;28564;53.346;-6.554;2022-11-18T03:41:09;99062.52;;;10.40;56.53
40372;BME280;28564;53.346;-6.554;2022-11-18T03:43:40;99061.02;;;10.88;56.20
40372;BME280;28564;53.346;-6.554;2022-11-18T03:46:13;99066.79;;;10.62;55.93
40372;BME280;28564;53.346;-6.554;2022-11-18T03:48:44;99063.66;;;10.95;55.70
40372;BME280;28564;53.346;-6.554;2022-11-18T03:51:18;99067.38;;;10.95;55.58
40372;BME280;28564;53.346;-6.554;2022-11-18T03:53:51;99065.20;;;10.90;55.51
40372;BME280;28564;53.346;-6.554;2022-11-18T03:56:25;99070.63;;;10.82;55.47
40372;BME280;28564;53.346;-6.554;2022-11-18T03:59:01;99073.95;;;10.69;55.71
40372;BME280;28564;53.346;-6.554;2022-11-18T04:01:33;99071.11;;;10.34;55.91
40372;BME280;28564;53.346;-6.554;2022-11-18T04:04:03;99073.18;;;10.35;56.39
40372;BME280;28564;53.346;-6.554;2022-11-18T04:06:36;99075.84;;;10.45;56.28
40372;BME280;28564;53.346;-6.554;2022-11-18T04:09:11;99078.36;;;10.45;56.46
40372;BME280;28564;53.346;-6.554;2022-11-18T04:11:44;99081.97;;;10.37;56.74
40372;BME280;28564;53.346;-6.554;2022-11-18T04:14:13;99084.90;;;10.38;56.94
40372;BME280;28564;53.346;-6.554;2022-11-18T04:16:44;99088.78;;;10.32;57.24
40372;BME280;28564;53.346;-6.554;2022-11-18T04:19:11;99092.37;;;10.32;57.41
40372;BME280;28564;53.346;-6.554;2022-11-18T04:21:38;99096.53;;;10.28;57.43
40372;BME280;28564;53.346;-6.554;2022-11-18T04:24:06;99095.04;;;10.23;57.50
40372;BME280;28564;53.346;-6.554;2022-11-18T04:26:33;99100.12;;;10.25;57.45
40372;BME280;28564;53.346;-6.554;2022-11-18T04:29:01;99094.69;;;10.27;57.35
40372;BME280;28564;53.346;-6.554;2022-11-18T04:31:28;99099.44;;;10.27;57.36
40372;BME280;28564;53.346;-6.554;2022-11-18T04:33:55;99106.98;;;10.36;57.29
40372;BME280;28564;53.346;-6.554;2022-11-18T04:36:23;99108.71;;;10.60;57.14
40372;BME280;28564;53.346;-6.554;2022-11-18T04:38:50;99112.88;;;10.40;56.99
40372;BME280;28564;53.346;-6.554;2022-11-18T04:41:17;99117.08;;;10.26;57.02
40372;BME280;28564;53.346;-6.554;2022-11-18T04:43:44;99123.17;;;10.33;56.99
40372;BME280;28564;53.346;-6.554;2022-11-18T04:46:12;99125.47;;;10.40;56.92
40372;BME280;28564;53.346;-6.554;2022-11-18T04:48:39;99134.39;;;10.47;56.80
40372;BME280;28564;53.346;-6.554;2022-11-18T04:51:06;99133.52;;;10.32;56.73
40372;BME280;28564;53.346;-6.554;2022-11-18T04:53:34;99133.21;;;10.29;56.66
40372;BME280;28564;53.346;-6.554;2022-11-18T04:56:04;99142.98;;;10.22;56.52
40372;BME280;28564;53.346;-6.554;2022-11-18T04:58:32;99142.48;;;10.16;56.44
40372;BME280;28564;53.346;-6.554;2022-11-18T05:00:59;99143.11;;;10.07;56.34
40372;BME280;28564;53.346;-6.554;2022-11-18T05:03:26;99146.24;;;10.05;56.22
40372;BME280;28564;53.346;-6.554;2022-11-18T05:05:53;99149.05;;;10.04;56.22
40372;BME280;28564;53.346;-6.554;2022-11-18T05:08:21;99152.87;;;10.22;56.11
40372;BME280;28564;53.346;-6.554;2022-11-18T05:10:48;99153.45;;;9.92;55.95
40372;BME280;28564;53.346;-6.554;2022-11-18T05:13:15;99159.46;;;10.16;56.12
40372;BME280;28564;53.346;-6.554;2022-11-18T05:15:43;99160.64;;;9.97;56.81
40372;BME280;28564;53.346;-6.554;2022-11-18T05:18:10;99162.28;;;9.88;57.29
40372;BME280;28564;53.346;-6.554;2022-11-18T05:20:37;99164.53;;;10.08;57.66
40372;BME280;28564;53.346;-6.554;2022-11-18T05:23:04;99168.33;;;9.81;57.73
40372;BME280;28564;53.346;-6.554;2022-11-18T05:25:32;99168.21;;;9.94;57.61
40372;BME280;28564;53.346;-6.554;2022-11-18T05:28:01;99174.23;;;9.87;57.47
40372;BME280;28564;53.346;-6.554;2022-11-18T05:30:28;99195.78;;;9.52;57.32
40372;BME280;28564;53.346;-6.554;2022-11-18T05:32:55;99192.52;;;9.60;57.34
40372;BME280;28564;53.346;-6.554;2022-11-18T05:35:23;99195.49;;;9.38;57.48
40372;BME280;28564;53.346;-6.554;2022-11-18T05:37:50;99198.09;;;9.57;57.26
40372;BME280;28564;53.346;-6.554;2022-11-18T05:40:17;99195.92;;;9.32;57.20
40372;BME280;28564;53.346;-6.554;2022-11-18T05:42:45;99200.09;;;9.28;57.31
40372;BME280;28564;53.346;-6.554;2022-11-18T05:45:12;99204.46;;;9.21;57.16
40372;BME280;28564;53.346;-6.554;2022-11-18T05:47:39;99208.09;;;9.17;57.08
40372;BME280;28564;53.346;-6.554;2022-11-18T05:50:07;99205.32;;;9.23;57.06
40372;BME280;28564;53.346;-6.554;2022-11-18T05:52:35;99201.21;;;9.16;56.74
40372;BME280;28564;53.346;-6.554;2022-11-18T05:55:03;99212.87;;;9.08;56.68
40372;BME280;28564;53.346;-6.554;2022-11-18T05:57:30;99213.12;;;8.90;56.75
40372;BME280;28564;53.346;-6.554;2022-11-18T05:59:57;99208.95;;;9.02;56.59
40372;BME280;28564;53.346;-6.554;2022-11-18T06:02:25;99197.83;;;8.83;56.52
40372;BME280;28564;53.346;-6.554;2022-11-18T06:04:57;99195.02;;;8.81;56.37
40372;BME280;28564;53.346;-6.554;2022-11-18T06:07:27;99199.02;;;8.79;56.38
40372;BME280;28564;53.346;-6.554;2022-11-18T06:09:58;99204.45;;;8.70;56.31
40372;BME280;28564;53.346;-6.554;2022-11-18T06:12:28;99202.89;;;8.56;56.39
40372;BME280;28564;53.346;-6.554;2022-11-18T06:14:59;99210.30;;;8.64;56.08
40372;BME280;28564;53.346;-6.554;2022-11-18T06:17:31;99212.99;;;8.61;56.04
40372;BME280;28564;53.346;-6.554;2022-11-18T06:20:02;99220.45;;;8.61;55.85
40372;BME280;28564;53.346;-6.554;2022-11-18T06:22:30;99216.80;;;8.60;55.79
40372;BME280;28564;53.346;-6.554;2022-11-18T06:24:59;99223.04;;;8.57;55.67
40372;BME280;28564;53.346;-6.554;2022-11-18T06:27:27;99239.49;;;8.56;55.51
40372;BME280;28564;53.346;-6.554;2022-11-18T06:29:55;99229.35;;;8.42;55.56
40372;BME280;28564;53.346;-6.554;2022-11-18T06:32:23;99231.43;;;8.61;55.61
40372;BME280;28564;53.346;-6.554;2022-11-18T06:34:50;99238.73;;;8.37;55.84
40372;BME280;28564;53.346;-6.554;2022-11-18T06:37:19;99230.79;;;8.66;55.70
40372;BME280;28564;53.346;-6.554;2022-11-18T06:39:47;99235.36;;;8.31;55.75
40372;BME280;28564;53.346;-6.554;2022-11-18T06:42:14;99238.07;;;8.43;55.80
40372;BME280;28564;53.346;-6.554;2022-11-18T06:44:41;99238.35;;;8.05;55.86
40372;BME280;28564;53.346;-6.554;2022-11-18T06:47:09;99243.15;;;8.30;56.06
40372;BME280;28564;53.346;-6.554;2022-11-18T06:49:36;99243.19;;;8.31;56.06
40372;BME280;28564;53.346;-6.554;2022-11-18T06:52:03;99256.11;;;8.27;55.64
40372;BME280;28564;53.346;-6.554;2022-11-18T06:54:31;99261.52;;;8.04;55.45
40372;BME280;28564;53.346;-6.554;2022-11-18T06:56:58;99269.15;;;8.06;55.37
40372;BME280;28564;53.346;-6.554;2022-11-18T06:59:25;99275.68;;;8.23;55.08
40372;BME280;28564;53.346;-6.554;2022-11-18T07:01:53;99276.33;;;8.15;55.28
40372;BME280;28564;53.346;-6.554;2022-11-18T07:04:20;99283.09;;;8.21;55.13
40372;BME280;28564;53.346;-6.554;2022-11-18T07:06:48;99283.05;;;8.09;55.32
40372;BME280;28564;53.346;-6.554;2022-11-18T07:09:15;99292.17;;;7.84;54.95
40372;BME280;28564;53.346;-6.554;2022-11-18T07:11:42;99293.62;;;7.98;54.92
40372;BME280;28564;53.346;-6.554;2022-11-18T07:14:11;99297.33;;;7.86;54.97
40372;BME280;28564;53.346;-6.554;2022-11-18T07:16:38;99302.45;;;7.93;55.09
40372;BME280;28564;53.346;-6.554;2022-11-18T07:19:08;99303.75;;;7.81;54.96
40372;BME280;28564;53.346;-6.554;2022-11-18T07:21:35;99306.32;;;7.68;55.11
40372;BME280;28564;53.346;-6.554;2022-11-18T07:24:05;99312.90;;;7.68;55.20
40372;BME280;28564;53.346;-6.554;2022-11-18T07:26:33;99319.14;;;7.67;55.00
40372;BME280;28564;53.346;-6.554;2022-11-18T07:29:01;99313.49;;;7.59;54.96
40372;BME280;28564;53.346;-6.554;2022-11-18T07:31:28;99316.15;;;7.89;55.01
40372;BME280;28564;53.346;-6.554;2022-11-18T07:33:55;99314.52;;;7.58;54.90
40372;BME280;28564;53.346;-6.554;2022-11-18T07:36:24;99315.57;;;7.61;55.17
40372;BME280;28564;53.346;-6.554;2022-11-18T07:38:52;99324.49;;;7.52;54.79
40372;BME280;28564;53.346;-6.554;2022-11-18T07:41:20;99323.23;;;7.55;55.08
40372;BME280;28564;53.346;-6.554;2022-11-18T07:43:48;99328.64;;;7.76;54.70
40372;BME280;28564;53.346;-6.554;2022-11-18T07:46:18;99333.19;;;7.50;54.62
40372;BME280;28564;53.346;-6.554;2022-11-18T07:48:49;99329.61;;;7.41;54.61
40372;BME280;28564;53.346;-6.554;2022-11-18T07:51:18;99336.93;;;7.34;54.68
40372;BME280;28564;53.346;-6.554;2022-11-18T07:53:46;99346.35;;;7.37;55.07
40372;BME280;28564;53.346;-6.554;2022-11-18T07:56:13;99348.28;;;7.50;54.45
40372;BME280;28564;53.346;-6.554;2022-11-18T07:58:41;99340.01;;;7.78;54.86
40372;BME280;28564;53.346;-6.554;2022-11-18T08:01:11;99351.66;;;7.57;54.27
40372;BME280;28564;53.346;-6.554;2022-11-18T08:03:39;99352.24;;;7.55;54.14
40372;BME280;28564;53.346;-6.554;2022-11-18T08:06:08;99355.06;;;7.63;53.99
40372;BME280;28564;53.346;-6.554;2022-11-18T08:08:36;99360.32;;;7.61;53.87
40372;BME280;28564;53.346;-6.554;2022-11-18T08:11:05;99361.83;;;7.71;53.78
40372;BME280;28564;53.346;-6.554;2022-11-18T08:13:33;99365.94;;;7.43;53.80
40372;BME280;28564;53.346;-6.554;2022-11-18T08:16:00;99368.19;;;7.50;53.80
40372;BME280;28564;53.346;-6.554;2022-11-18T08:18:30;99385.19;;;7.38;53.91
40372;BME280;28564;53.346;-6.554;2022-11-18T08:21:01;99381.03;;;7.72;53.82
40372;BME280;28564;53.346;-6.554;2022-11-18T08:23:28;99385.49;;;7.63;53.79
40372;BME280;28564;53.346;-6.554;2022-11-18T08:26:01;99389.36;;;7.55;53.61
40372;BME280;28564;53.346;-6.554;2022-11-18T08:28:29;99391.80;;;7.68;53.50
40372;BME280;28564;53.346;-6.554;2022-11-18T08:30:57;99397.60;;;7.89;53.31
40372;BME280;28564;53.346;-6.554;2022-11-18T08:33:24;99401.09;;;7.69;53.26
40372;BME280;28564;53.346;-6.554;2022-11-18T08:35:51;99403.98;;;7.73;53.13
40372;BME280;28564;53.346;-6.554;2022-11-18T08:38:18;99411.92;;;7.80;52.98
40372;BME280;28564;53.346;-6.554;2022-11-18T08:40:46;99417.94;;;7.82;52.90
40372;BME280;28564;53.346;-6.554;2022-11-18T08:43:13;99422.86;;;7.88;52.81
40372;BME280;28564;53.346;-6.554;2022-11-18T08:45:41;99432.48;;;7.76;53.00
40372;BME280;28564;53.346;-6.554;2022-11-18T08:48:08;99426.09;;;7.80;52.91
40372;BME280;28564;53.346;-6.554;2022-11-18T08:50:35;99427.99;;;7.95;52.96
40372;BME280;28564;53.346;-6.554;2022-11-18T08:53:03;99434.32;;;7.95;52.62
40372;BME280;28564;53.346;-6.554;2022-11-18T08:55:30;99433.77;;;7.91;52.60
40372;BME280;28564;53.346;-6.554;2022-11-18T08:57:57;99437.30;;;8.05;52.54
40372;BME280;28564;53.346;-6.554;2022-11-18T09:00:25;99438.38;;;7.84;52.40
40372;BME280;28564;53.346;-6.554;2022-11-18T09:02:52;99438.38;;;7.98;52.57
40372;BME280;28564;53.346;-6.554;2022-11-18T09:05:20;99443.15;;;8.06;52.16
40372;BME280;28564;53.346;-6.554;2022-11-18T09:07:47;99452.03;;;8.28;52.02
40372;BME280;28564;53.346;-6.554;2022-11-18T09:10:15;99451.94;;;8.40;51.95
40372;BME280;28564;53.346;-6.554;2022-11-18T09:12:42;99453.94;;;8.27;51.78
40372;BME280;28564;53.346;-6.554;2022-11-18T09:15:10;99461.35;;;8.08;51.56
40372;BME280;28564;53.346;-6.554;2022-11-18T09:17:37;99470.96;;;8.46;51.61
40372;BME280;28564;53.346;-6.554;2022-11-18T09:20:05;99474.04;;;8.27;51.39
40372;BME280;28564;53.346;-6.554;2022-11-18T09:22:35;99480.77;;;8.59;51.42
40372;BME280;28564;53.346;-6.554;2022-11-18T09:25:02;99487.26;;;8.66;51.24
40372;BME280;28564;53.346;-6.554;2022-11-18T09:27:29;99485.69;;;8.43;51.23
40372;BME280;28564;53.346;-6.554;2022-11-18T09:29:57;99494.62;;;8.33;51.14
40372;BME280;28564;53.346;-6.554;2022-11-18T09:32:24;99502.61;;;8.35;51.03
40372;BME280;28564;53.346;-6.554;2022-11-18T09:34:51;99496.62;;;8.60;51.03
40372;BME280;28564;53.346;-6.554;2022-11-18T09:37:19;99492.18;;;8.61;51.01
40372;BME280;28564;53.346;-6.554;2022-11-18T09:39:46;99495.34;;;8.38;50.94
40372;BME280;28564;53.346;-6.554;2022-11-18T09:42:24;99493.66;;;8.50;51.02
40372;BME280;28564;53.346;-6.554;2022-11-18T09:45:02;99492.98;;;8.96;50.99
40372;BME280;28564;53.346;-6.554;2022-11-18T09:47:33;99491.27;;;8.84;50.79
40372;BME280;28564;53.346;-6.554;2022-11-18T09:50:03;99493.11;;;8.93;50.58
40372;BME280;28564;53.346;-6.554;2022-11-18T09:52:35;99493.42;;;9.06;50.61
40372;BME280;28564;53.346;-6.554;2022-11-18T09:55:07;99499.13;;;8.92;50.29
40372;BME280;28564;53.346;-6.554;2022-11-18T09:57:39;99502.53;;;9.01;50.28
40372;BME280;28564;53.346;-6.554;2022-11-18T10:00:13;99501.32;;;9.11;50.25
40372;BME280;28564;53.346;-6.554;2022-11-18T10:02:47;99504.16;;;9.17;50.09
40372;BME280;28564;53.346;-6.554;2022-11-18T10:05:19;99506.39;;;9.28;50.29
40372;BME280;28564;53.346;-6.554;2022-11-18T10:07:55;99513.64;;;9.34;50.14
40372;BME280;28564;53.346;-6.554;2022-11-18T10:10:29;99509.03;;;9.26;50.42
40372;BME280;28564;53.346;-6.554;2022-11-18T10:13:15;99502.33;;;9.36;49.97
40372;BME280;28564;53.346;-6.554;2022-11-18T10:15:54;99502.85;;;9.11;49.68
40372;BME280;28564;53.346;-6.554;2022-11-18T10:18:29;99497.04;;;9.44;49.42
40372;BME280;28564;53.346;-6.554;2022-11-18T10:21:04;99499.62;;;9.49;49.43
40372;BME280;28564;53.346;-6.554;2022-11-18T10:23:44;99525.40;;;9.65;49.19
40372;BME280;28564;53.346;-6.554;2022-11-18T10:26:31;99518.41;;;9.83;49.08
40372;BME280;28564;53.346;-6.554;2022-11-18T10:28:59;99533.26;;;9.64;48.88
40372;BME280;28564;53.346;-6.554;2022-11-18T10:31:26;99529.87;;;9.73;48.73
40372;BME280;28564;53.346;-6.554;2022-11-18T10:33:58;99538.14;;;10.25;48.49
40372;BME280;28564;53.346;-6.554;2022-11-18T10:36:27;99533.38;;;10.27;48.45
40372;BME280;28564;53.346;-6.554;2022-11-18T10:39:13;99537.96;;;9.81;48.30
40372;BME280;28564;53.346;-6.554;2022-11-18T10:41:45;99533.54;;;10.22;48.30
40372;BME280;28564;53.346;-6.554;2022-11-18T10:44:46;99537.05;;;10.27;48.05
40372;BME280;28564;53.346;-6.554;2022-11-18T10:47:18;99537.02;;;9.92;48.16
40372;BME280;28564;53.346;-6.554;2022-11-18T10:49:46;99545.72;;;10.23;47.91
40372;BME280;28564;53.346;-6.554;2022-11-18T10:52:14;99549.39;;;10.38;47.76
40372;BME280;28564;53.346;-6.554;2022-11-18T10:54:42;99546.35;;;10.42;47.68
40372;BME280;28564;53.346;-6.554;2022-11-18T10:57:15;99549.09;;;10.27;47.83
40372;BME280;28564;53.346;-6.554;2022-11-18T10:59:47;99547.09;;;10.60;47.69
40372;BME280;28564;53.346;-6.554;2022-11-18T11:02:17;99557.78;;;10.77;47.34
40372;BME280;28564;53.346;-6.554;2022-11-18T11:04:46;99556.90;;;10.61;47.05
40372;BME280;28564;53.346;-6.554;2022-11-18T11:07:16;99563.84;;;10.62;46.83
40372;BME280;28564;53.346;-6.554;2022-11-18T11:09:59;99567.85;;;11.01;46.57
40372;BME280;28564;53.346;-6.554;2022-11-18T11:12:29;99568.64;;;10.98;46.42
40372;BME280;28564;53.346;-6.554;2022-11-18T11:14:59;99569.24;;;10.95;46.61
40372;BME280;28564;53.346;-6.554;2022-11-18T11:17:30;99585.31;;;11.05;46.31
40372;BME280;28564;53.346;-6.554;2022-11-18T11:20:05;99580.77;;;11.13;46.10
40372;BME280;28564;53.346;-6.554;2022-11-18T11:22:36;99592.55;;;11.48;46.18
40372;BME280;28564;53.346;-6.554;2022-11-18T11:25:05;99586.30;;;11.16;46.07
40372;BME280;28564;53.346;-6.554;2022-11-18T11:27:48;99582.77;;;11.32;45.87
40372;BME280;28564;53.346;-6.554;2022-11-18T11:30:21;99579.04;;;11.32;45.72
40372;BME280;28564;53.346;-6.554;2022-11-18T11:33:11;99598.22;;;11.40;45.41
40372;BME280;28564;53.346;-6.554;2022-11-18T11:35:46;99600.86;;;11.52;45.57
40372;BME280;28564;53.346;-6.554;2022-11-18T11:38:24;99601.08;;;11.53;45.38
40372;BME280;28564;53.346;-6.554;2022-11-18T11:41:05;99604.41;;;11.74;45.58
40372;BME280;28564;53.346;-6.554;2022-11-18T11:43:45;99612.80;;;11.88;45.21
40372;BME280;28564;53.346;-6.554;2022-11-18T11:46:26;99629.04;;;12.01;44.86
40372;BME280;28564;53.346;-6.554;2022-11-18T11:48:58;99622.14;;;11.87;44.78
40372;BME280;28564;53.346;-6.554;2022-11-18T11:51:35;99617.93;;;11.85;44.80
40372;BME280;28564;53.346;-6.554;2022-11-18T11:54:18;99627.77;;;12.21;44.55
40372;BME280;28564;53.346;-6.554;2022-11-18T11:56:52;99614.54;;;12.41;44.26
40372;BME280;28564;53.346;-6.554;2022-11-18T11:59:27;99624.62;;;12.08;43.68
40372;BME280;28564;53.346;-6.554;2022-11-18T12:02:01;99621.12;;;12.18;43.67
40372;BME280;28564;53.346;-6.554;2022-11-18T12:04:41;99628.08;;;12.78;43.20
40372;BME280;28564;53.346;-6.554;2022-11-18T12:07:16;99634.51;;;13.77;41.65
40372;BME280;28564;53.346;-6.554;2022-11-18T12:09:56;99630.41;;;14.90;39.77
40372;BME280;28564;53.346;-6.554;2022-11-18T12:12:33;99628.06;;;16.40;37.57
40372;BME280;28564;53.346;-6.554;2022-11-18T12:15:10;99628.58;;;17.34;35.68
40372;BME280;28564;53.346;-6.554;2022-11-18T12:17:51;99641.10;;;18.22;34.53
40372;BME280;28564;53.346;-6.554;2022-11-18T12:20:41;99634.46;;;18.59;33.22
40372;BME280;28564;53.346;-6.554;2022-11-18T12:23:11;99647.85;;;19.02;32.60
40372;BME280;28564;53.346;-6.554;2022-11-18T12:26:11;99653.24;;;19.31;32.02
40372;BME280;28564;53.346;-6.554;2022-11-18T12:29:20;99641.73;;;19.91;31.49
40372;BME280;28564;53.346;-6.554;2022-11-18T12:31:50;99645.15;;;20.24;30.89
40372;BME280;28564;53.346;-6.554;2022-11-18T12:34:27;99648.68;;;20.32;30.39
40372;BME280;28564;53.346;-6.554;2022-11-18T12:36:55;99648.84;;;20.27;30.40
40372;BME280;28564;53.346;-6.554;2022-11-18T12:42:36;99658.38;;;17.63;33.41
40372;BME280;28564;53.346;-6.554;2022-11-18T12:45:58;99663.71;;;15.97;36.09
40372;BME280;28564;53.346;-6.554;2022-11-18T12:48:28;99657.08;;;14.90;37.51
40372;BME280;28564;53.346;-6.554;2022-11-18T12:50:57;99663.98;;;14.29;38.88
40372;BME280;28564;53.346;-6.554;2022-11-18T12:53:35;99661.10;;;14.11;39.79
40372;BME280;28564;53.346;-6.554;2022-11-18T12:56:20;99668.21;;;13.59;41.00
40372;BME280;28564;53.346;-6.554;2022-11-18T12:58:50;99667.68;;;13.19;41.36
40372;BME280;28564;53.346;-6.554;2022-11-18T13:01:19;99670.06;;;13.16;42.11
40372;BME280;28564;53.346;-6.554;2022-11-18T13:03:47;99665.44;;;12.74;42.66
40372;BME280;28564;53.346;-6.554;2022-11-18T13:06:22;99674.97;;;13.02;42.37
40372;BME280;28564;53.346;-6.554;2022-11-18T13:08:52;99673.16;;;12.65;42.40
40372;BME280;28564;53.346;-6.554;2022-11-18T13:11:21;99673.89;;;12.79;42.69
40372;BME280;28564;53.346;-6.554;2022-11-18T13:13:50;99676.06;;;12.71;42.58
40372;BME280;28564;53.346;-6.554;2022-11-18T13:16:19;99690.24;;;12.57;42.88
40372;BME280;28564;53.346;-6.554;2022-11-18T13:18:48;99678.36;;;12.47;42.76